createdAt,value
2018-03-23T00:00:07.164Z,52.09
2018-03-23T00:01:07.145Z,51.83
2018-03-23T00:02:07.111Z,52.40
2018-03-23T00:03:07.091Z,52.95
2018-03-23T00:04:07.058Z,52.85
2018-03-23T00:05:07.034Z,52.66
2018-03-23T00:06:07.000Z,53.04
2018-03-23T00:07:06.982Z,53.23
2018-03-23T00:08:06.960Z,53.99
2018-03-23T00:09:06.926Z,52.85
2018-03-23T00:10:06.896Z,53.89
2018-03-23T00:11:06.866Z,53.83
2018-03-23T00:12:06.837Z,53.70
2018-03-23T00:13:06.843Z,53.99
2018-03-23T00:14:06.785Z,53.99
2018-03-23T00:15:06.765Z,53.80
2018-03-23T00:16:06.754Z,53.89
2018-03-23T00:17:06.702Z,53.70
2018-03-23T00:18:06.682Z,54.37
2018-03-23T00:19:06.674Z,54.08
2018-03-23T00:20:06.626Z,53.61
2018-03-23T00:21:06.598Z,53.99
2018-03-23T00:22:06.574Z,54.18
2018-03-23T00:23:06.534Z,54.37
2018-03-23T00:24:06.515Z,54.37
2018-03-23T00:25:06.481Z,54.56
2018-03-23T00:26:06.453Z,54.27
2018-03-23T00:27:06.431Z,54.37
2018-03-23T00:28:06.407Z,54.27
2018-03-23T00:29:06.368Z,54.18
2018-03-23T00:30:06.353Z,54.56
2018-03-23T00:31:06.321Z,54.46
2018-03-23T00:32:06.296Z,54.18
2018-03-23T00:33:06.268Z,54.46
2018-03-23T00:34:06.236Z,54.08
2018-03-23T00:35:06.209Z,54.27
2018-03-23T00:36:06.185Z,55.32
2018-03-23T00:37:06.158Z,55.13
2018-03-23T00:38:06.138Z,54.39
2018-03-23T00:39:06.107Z,55.04
2018-03-23T00:40:06.076Z,55.70
2018-03-23T00:41:06.051Z,56.08
2018-03-23T00:42:06.023Z,55.54
2018-03-23T00:43:05.992Z,55.35
2018-03-23T00:44:05.965Z,55.06
2018-03-23T00:45:05.945Z,55.60
2018-03-23T00:46:05.909Z,56.08
2018-03-23T00:47:05.882Z,55.73
2018-03-23T00:48:05.864Z,56.01
2018-03-23T00:49:05.827Z,56.29
2018-03-23T00:50:05.806Z,57.21
2018-03-23T00:51:05.775Z,56.65
2018-03-23T00:52:05.749Z,56.84
2018-03-23T00:53:05.725Z,57.79
2018-03-23T00:54:05.699Z,56.74
2018-03-23T00:55:05.669Z,56.93
2018-03-23T00:56:05.637Z,57.34
2018-03-23T00:57:05.609Z,57.31
2018-03-23T00:58:05.587Z,57.50
2018-03-23T00:59:05.557Z,57.62
2018-03-23T01:00:05.530Z,58.00
2018-03-23T01:01:05.501Z,57.81
2018-03-23T01:02:05.481Z,58.00
2018-03-23T01:03:05.450Z,58.67
2018-03-23T01:04:05.426Z,58.67
2018-03-23T01:05:05.397Z,58.67
2018-03-23T01:06:05.365Z,58.64
2018-03-23T01:07:05.337Z,58.95
2018-03-23T01:08:05.312Z,58.48
2018-03-23T01:09:05.287Z,58.95
2018-03-23T01:10:05.255Z,58.39
2018-03-23T01:11:05.229Z,58.58
2018-03-23T01:12:05.208Z,58.95
2018-03-23T01:13:05.175Z,58.29
2018-03-23T01:14:05.148Z,58.00
2018-03-23T01:15:05.124Z,58.76
2018-03-23T01:16:05.094Z,57.62
2018-03-23T01:17:05.070Z,58.67
2018-03-23T01:18:05.041Z,58.58
2018-03-23T01:19:05.016Z,58.86
2018-03-23T01:20:04.996Z,59.05
2018-03-23T01:21:04.958Z,58.29
2018-03-23T01:22:04.936Z,58.48
2018-03-23T01:23:04.897Z,59.33
2018-03-23T01:24:04.873Z,59.14
2018-03-23T01:25:04.852Z,59.14
2018-03-23T01:26:04.823Z,58.58
2018-03-23T01:27:04.788Z,58.76
2018-03-23T01:28:04.772Z,59.62
2018-03-23T01:29:04.740Z,59.43
2018-03-23T01:30:04.708Z,59.68
2018-03-23T01:31:04.689Z,59.43
2018-03-23T01:32:04.661Z,59.33
2018-03-23T01:33:04.627Z,59.05
2018-03-23T01:34:04.602Z,58.76
2018-03-23T01:35:04.574Z,58.86
2018-03-23T01:36:04.550Z,59.43
2018-03-23T01:37:04.523Z,59.81
2018-03-23T01:38:04.494Z,59.52
2018-03-23T01:39:04.475Z,59.33
2018-03-23T01:40:04.442Z,59.71
2018-03-23T01:41:04.422Z,59.43
2018-03-23T01:42:04.390Z,59.71
2018-03-23T01:43:04.361Z,59.91
2018-03-23T01:44:04.329Z,59.52
2018-03-23T01:45:04.309Z,59.52
2018-03-23T01:46:04.278Z,59.62
2018-03-23T01:47:04.260Z,60.28
2018-03-23T01:48:04.225Z,60.19
2018-03-23T01:49:04.200Z,59.91
2018-03-23T01:50:04.171Z,59.52
2018-03-23T01:51:04.139Z,60.47
2018-03-23T01:52:04.122Z,60.38
2018-03-23T01:53:04.087Z,61.04
2018-03-23T01:54:04.062Z,60.76
2018-03-23T01:55:04.029Z,60.47
2018-03-23T01:56:04.005Z,60.47
2018-03-23T01:57:03.981Z,59.81
2018-03-23T01:58:03.947Z,60.00
2018-03-23T01:59:03.926Z,60.66
2018-03-23T02:00:03.900Z,60.38
2018-03-23T02:01:03.881Z,60.19
2018-03-23T02:02:03.840Z,61.23
2018-03-23T02:03:03.813Z,60.85
2018-03-23T02:04:03.783Z,62.08
2018-03-23T02:05:03.763Z,61.52
2018-03-23T02:06:03.734Z,62.08
2018-03-23T02:07:03.704Z,61.52
2018-03-23T02:08:03.679Z,60.95
2018-03-23T02:09:03.650Z,61.14
2018-03-23T02:10:03.639Z,60.95
2018-03-23T02:11:03.603Z,60.47
2018-03-23T02:12:03.571Z,60.47
2018-03-23T02:13:03.552Z,60.66
2018-03-23T02:14:03.521Z,60.38
2018-03-23T02:15:03.487Z,60.00
2018-03-23T02:16:03.469Z,60.28
2018-03-23T02:17:03.438Z,61.23
2018-03-23T02:18:03.408Z,60.85
2018-03-23T02:19:03.384Z,60.28
2018-03-23T02:20:03.349Z,60.85
2018-03-23T02:21:03.331Z,60.85
2018-03-23T02:22:03.303Z,60.57
2018-03-23T02:23:03.278Z,61.04
2018-03-23T02:24:03.245Z,61.14
2018-03-23T02:25:03.226Z,61.42
2018-03-23T02:26:03.195Z,61.71
2018-03-23T02:27:03.161Z,60.38
2018-03-23T02:28:03.138Z,60.38
2018-03-23T02:29:03.112Z,59.81
2018-03-23T02:30:03.092Z,59.71
2018-03-23T02:31:03.051Z,60.00
2018-03-23T02:32:03.037Z,60.10
2018-03-23T02:33:02.999Z,59.91
2018-03-23T02:34:02.972Z,59.43
2018-03-23T02:35:02.951Z,59.52
2018-03-23T02:36:02.919Z,59.43
2018-03-23T02:37:02.897Z,59.81
2018-03-23T02:38:02.861Z,59.33
2018-03-23T02:39:02.844Z,59.52
2018-03-23T02:40:02.818Z,59.43
2018-03-23T02:41:02.780Z,58.20
2018-03-23T02:42:02.765Z,58.76
2018-03-23T02:43:02.735Z,58.58
2018-03-23T02:44:02.705Z,59.17
2018-03-23T02:45:02.679Z,58.67
2018-03-23T02:46:02.655Z,59.24
2018-03-23T02:47:02.619Z,59.33
2018-03-23T02:48:02.595Z,59.33
2018-03-23T02:49:02.576Z,59.52
2018-03-23T02:50:02.544Z,59.71
2018-03-23T02:51:02.522Z,59.81
2018-03-23T02:52:02.483Z,59.52
2018-03-23T02:53:02.459Z,59.91
2018-03-23T02:54:02.442Z,59.91
2018-03-23T02:55:02.472Z,58.29
2018-03-23T02:56:02.377Z,58.67
2018-03-23T02:57:02.351Z,58.20
2018-03-23T02:58:02.324Z,57.53
2018-03-23T02:59:02.299Z,58.20
2018-03-23T03:00:02.270Z,58.00
2018-03-23T03:01:02.245Z,57.24
2018-03-23T03:02:02.212Z,57.81
2018-03-23T03:03:02.286Z,57.72
2018-03-23T03:04:02.168Z,57.91
2018-03-23T03:05:02.129Z,57.43
2018-03-23T03:06:02.123Z,57.15
2018-03-23T03:07:02.075Z,57.15
2018-03-23T03:08:02.051Z,57.15
2018-03-23T03:09:02.030Z,57.06
2018-03-23T03:10:02.007Z,57.24
2018-03-23T03:11:01.973Z,56.96
2018-03-23T03:12:01.948Z,56.20
2018-03-23T03:13:01.987Z,56.01
2018-03-23T03:14:01.898Z,55.82
2018-03-23T03:15:01.858Z,56.10
2018-03-23T03:16:01.844Z,55.54
2018-03-23T03:17:01.812Z,55.25
2018-03-23T03:18:01.785Z,55.54
2018-03-23T03:19:01.752Z,55.06
2018-03-23T03:20:01.724Z,55.35
2018-03-23T03:21:01.706Z,54.87
2018-03-23T03:22:01.666Z,54.87
2018-03-23T03:23:01.649Z,55.25
2018-03-23T03:24:01.614Z,55.06
2018-03-23T03:25:01.594Z,54.87
2018-03-23T03:26:01.564Z,54.87
2018-03-23T03:27:01.542Z,54.97
2018-03-23T03:28:01.514Z,54.78
2018-03-23T03:29:01.479Z,54.68
2018-03-23T03:30:01.456Z,55.06
2018-03-23T03:31:01.429Z,54.87
2018-03-23T03:32:01.412Z,54.58
2018-03-23T03:33:01.370Z,54.87
2018-03-23T03:34:01.356Z,55.06
2018-03-23T03:35:01.315Z,54.97
2018-03-23T03:36:01.299Z,55.06
2018-03-23T03:37:01.276Z,54.97
2018-03-23T03:38:01.244Z,55.16
2018-03-23T03:39:01.221Z,55.16
2018-03-23T03:40:01.189Z,54.58
2018-03-23T03:41:01.161Z,55.06
2018-03-23T03:42:01.132Z,54.21
2018-03-23T03:43:01.153Z,54.30
2018-03-23T03:44:01.073Z,54.21
2018-03-23T03:45:01.051Z,54.11
2018-03-23T03:46:01.024Z,53.64
2018-03-23T03:47:00.994Z,53.73
2018-03-23T03:48:00.965Z,54.11
2018-03-23T03:49:00.939Z,53.07
2018-03-23T03:50:00.912Z,52.97
2018-03-23T03:51:00.889Z,52.78
2018-03-23T03:52:00.859Z,52.78
2018-03-23T03:53:00.832Z,52.69
2018-03-23T03:54:00.814Z,53.16
2018-03-23T03:55:00.772Z,53.16
2018-03-23T03:56:00.755Z,53.16
2018-03-23T03:57:00.720Z,52.69
2018-03-23T03:58:00.695Z,52.87
2018-03-23T03:59:00.673Z,52.78
2018-03-23T04:00:00.638Z,52.69
2018-03-23T04:01:00.616Z,52.97
2018-03-23T04:02:00.585Z,52.59
2018-03-23T04:03:00.556Z,52.50
2018-03-23T04:04:00.538Z,52.59
2018-03-23T04:05:00.508Z,52.69
2018-03-23T04:06:00.478Z,52.31
2018-03-23T04:07:00.449Z,52.40
2018-03-23T04:08:00.418Z,52.40
2018-03-23T04:09:00.396Z,52.50
2018-03-23T04:10:00.368Z,52.69
2018-03-23T04:11:00.353Z,52.69
2018-03-23T04:12:00.314Z,52.59
2018-03-23T04:13:00.285Z,52.59
2018-03-23T04:14:00.261Z,52.50
2018-03-23T04:15:00.232Z,52.40
2018-03-23T04:16:00.203Z,52.78
2018-03-23T04:17:00.180Z,53.16
2018-03-23T04:18:00.155Z,52.97
2018-03-23T04:19:00.118Z,52.97
2018-03-23T04:20:00.097Z,52.78
2018-03-23T04:21:00.065Z,52.97
2018-03-23T04:22:00.047Z,52.87
2018-03-23T04:23:00.078Z,52.87
2018-03-23T04:23:59.990Z,52.59
2018-03-23T04:24:59.957Z,52.78
2018-03-23T04:25:59.930Z,52.87
2018-03-23T04:26:59.898Z,52.78
2018-03-23T04:27:59.877Z,52.78
2018-03-23T04:28:59.858Z,52.78
2018-03-23T04:29:59.823Z,53.07
2018-03-23T04:30:59.798Z,52.69
2018-03-23T04:31:59.773Z,52.78
2018-03-23T04:32:59.742Z,52.97
2018-03-23T04:33:59.713Z,52.97
2018-03-23T04:34:59.683Z,52.78
2018-03-23T04:35:59.658Z,53.16
2018-03-23T04:36:59.635Z,52.59
2018-03-23T04:37:59.606Z,52.31
2018-03-23T04:38:59.576Z,52.87
2018-03-23T04:39:59.548Z,52.50
2018-03-23T04:40:59.529Z,52.78
2018-03-23T04:41:59.496Z,52.69
2018-03-23T04:42:59.468Z,52.69
2018-03-23T04:43:59.444Z,52.69
2018-03-23T04:44:59.408Z,52.78
2018-03-23T04:45:59.389Z,52.78
2018-03-23T04:46:59.364Z,52.69
2018-03-23T04:47:59.324Z,53.07
2018-03-23T04:48:59.309Z,52.78
2018-03-23T04:49:59.278Z,52.87
2018-03-23T04:50:59.248Z,53.07
2018-03-23T04:51:59.225Z,52.69
2018-03-23T04:52:59.198Z,53.16
2018-03-23T04:53:59.169Z,53.07
2018-03-23T04:54:59.150Z,52.69
2018-03-23T04:55:59.107Z,52.69
2018-03-23T04:56:59.086Z,52.78
2018-03-23T04:57:59.066Z,52.78
2018-03-23T04:58:59.030Z,52.78
2018-03-23T04:59:58.998Z,52.97
2018-03-23T05:00:58.984Z,52.78
2018-03-23T05:01:58.950Z,53.16
2018-03-23T05:02:58.928Z,53.16
2018-03-23T05:03:58.901Z,52.69
2018-03-23T05:04:58.865Z,52.87
2018-03-23T05:05:58.847Z,52.97
2018-03-23T05:06:58.813Z,52.97
2018-03-23T05:07:58.799Z,52.97
2018-03-23T05:08:58.758Z,52.97
2018-03-23T05:09:58.733Z,53.16
2018-03-23T05:10:58.700Z,52.78
2018-03-23T05:11:58.702Z,52.78
2018-03-23T05:12:58.651Z,52.78
2018-03-23T05:13:58.625Z,53.26
2018-03-23T05:14:58.595Z,52.78
2018-03-23T05:15:58.566Z,53.16
2018-03-23T05:16:58.538Z,52.87
2018-03-23T05:17:58.519Z,53.35
2018-03-23T05:18:58.486Z,53.16
2018-03-23T05:19:58.454Z,53.26
2018-03-23T05:20:58.434Z,53.83
2018-03-23T05:21:58.400Z,53.80
2018-03-23T05:22:58.378Z,54.46
2018-03-23T05:23:58.341Z,54.27
2018-03-23T05:24:58.327Z,53.99
2018-03-23T05:25:58.294Z,54.27
2018-03-23T05:26:58.268Z,54.21
2018-03-23T05:27:58.234Z,53.83
2018-03-23T05:28:58.206Z,54.11
2018-03-23T05:29:58.187Z,53.73
2018-03-23T05:30:58.154Z,54.21
2018-03-23T05:31:58.121Z,54.21
2018-03-23T05:32:58.107Z,54.49
2018-03-23T05:33:58.072Z,54.11
2018-03-23T05:34:58.042Z,54.08
2018-03-23T05:35:58.020Z,54.18
2018-03-23T05:36:57.994Z,53.61
2018-03-23T05:37:57.972Z,53.73
2018-03-23T05:38:57.930Z,53.80
2018-03-23T05:39:57.903Z,53.83
2018-03-23T05:40:57.884Z,53.73
2018-03-23T05:41:57.860Z,53.64
2018-03-23T05:42:57.828Z,53.73
2018-03-23T05:43:57.819Z,53.80
2018-03-23T05:44:57.771Z,53.80
2018-03-23T05:45:57.748Z,54.27
2018-03-23T05:46:57.720Z,54.37
2018-03-23T05:47:57.694Z,53.99
2018-03-23T05:48:57.660Z,54.18
2018-03-23T05:49:57.637Z,54.37
2018-03-23T05:50:57.624Z,54.37
2018-03-23T05:51:57.571Z,54.56
2018-03-23T05:52:57.561Z,54.94
2018-03-23T05:53:57.528Z,55.13
2018-03-23T05:54:57.495Z,55.32
2018-03-23T05:55:57.463Z,55.04
2018-03-23T05:56:57.450Z,55.70
2018-03-23T05:57:57.414Z,56.08
2018-03-23T05:58:57.390Z,56.08
2018-03-23T05:59:57.382Z,55.60
2018-03-23T06:00:57.325Z,56.46
2018-03-23T06:01:57.302Z,55.98
2018-03-23T06:02:57.277Z,56.65
2018-03-23T06:03:57.247Z,57.21
2018-03-23T06:04:57.233Z,57.31
2018-03-23T06:05:57.200Z,57.12
2018-03-23T06:06:57.177Z,57.40
2018-03-23T06:07:57.143Z,57.59
2018-03-23T06:08:57.107Z,57.79
2018-03-23T06:09:57.093Z,57.79
2018-03-23T06:10:57.055Z,58.26
2018-03-23T06:11:57.039Z,58.07
2018-03-23T06:12:57.007Z,57.98
2018-03-23T06:13:56.980Z,57.40
2018-03-23T06:14:56.950Z,57.31
2018-03-23T06:15:56.926Z,57.31
2018-03-23T06:16:56.897Z,57.79
2018-03-23T06:17:56.867Z,58.73
2018-03-23T06:18:56.839Z,59.02
2018-03-23T06:19:56.810Z,58.92
2018-03-23T06:20:56.786Z,58.73
2018-03-23T06:21:56.761Z,59.11
2018-03-23T06:22:56.733Z,59.40
2018-03-23T06:23:56.703Z,59.40
2018-03-23T06:24:56.681Z,58.73
2018-03-23T06:25:56.646Z,59.59
2018-03-23T06:26:56.626Z,59.11
2018-03-23T06:27:56.620Z,59.11
2018-03-23T06:28:56.560Z,60.06
2018-03-23T06:29:56.543Z,58.73
2018-03-23T06:30:56.506Z,58.64
2018-03-23T06:31:56.500Z,59.40
2018-03-23T06:32:56.489Z,58.73
2018-03-23T06:33:56.436Z,59.40
2018-03-23T06:34:56.403Z,59.88
2018-03-23T06:35:56.370Z,60.06
2018-03-23T06:36:56.398Z,60.73
2018-03-23T06:37:56.491Z,60.06
2018-03-23T06:38:56.358Z,59.88
2018-03-23T06:39:56.283Z,60.44
2018-03-23T06:40:56.242Z,60.73
2018-03-23T06:41:56.215Z,61.11
2018-03-23T06:42:56.180Z,61.49
2018-03-23T06:43:56.165Z,61.58
2018-03-23T06:44:56.126Z,61.58
2018-03-23T06:45:56.097Z,61.20
2018-03-23T06:46:56.074Z,61.68
2018-03-23T06:47:56.056Z,61.96
2018-03-23T06:48:56.020Z,61.68
2018-03-23T06:49:55.986Z,62.34
2018-03-23T06:50:55.959Z,62.05
2018-03-23T06:51:55.939Z,62.15
2018-03-23T06:52:55.907Z,62.05
2018-03-23T06:53:55.873Z,63.39
2018-03-23T06:54:55.859Z,63.29
2018-03-23T06:55:55.819Z,63.39
2018-03-23T06:56:55.801Z,63.20
2018-03-23T06:57:55.774Z,63.86
2018-03-23T06:58:55.732Z,63.67
2018-03-23T06:59:55.716Z,63.10
2018-03-23T07:00:55.685Z,63.01
2018-03-23T07:01:55.665Z,63.20
2018-03-23T07:02:55.635Z,64.14
2018-03-23T07:03:55.604Z,63.20
2018-03-23T07:04:55.583Z,63.39
2018-03-23T07:05:55.549Z,63.48
2018-03-23T07:06:55.519Z,64.05
2018-03-23T07:07:55.490Z,64.90
2018-03-23T07:08:55.486Z,64.62
2018-03-23T07:09:55.449Z,64.90
2018-03-23T07:10:55.469Z,64.24
2018-03-23T07:11:55.389Z,63.57
2018-03-23T07:12:55.357Z,63.10
2018-03-23T07:13:55.329Z,65.56
2018-03-23T07:14:55.304Z,66.23
2018-03-23T07:15:55.269Z,66.23
2018-03-23T07:16:55.251Z,65.85
2018-03-23T07:17:55.224Z,64.90
2018-03-23T07:18:55.199Z,66.99
2018-03-23T07:19:55.167Z,66.52
2018-03-23T07:20:55.199Z,65.56
2018-03-23T07:21:55.121Z,66.23
2018-03-23T07:22:55.077Z,65.66
2018-03-23T07:23:55.138Z,66.14
2018-03-23T07:24:55.024Z,66.80
2018-03-23T07:25:55.000Z,67.08
2018-03-23T07:26:54.977Z,67.94
2018-03-23T07:27:54.999Z,67.27
2018-03-23T07:28:54.929Z,66.99
2018-03-23T07:29:54.897Z,67.27
2018-03-23T07:30:54.905Z,68.70
2018-03-23T07:31:54.843Z,67.08
2018-03-23T07:32:54.853Z,66.14
2018-03-23T07:33:54.785Z,65.37
2018-03-23T07:34:54.750Z,66.04
2018-03-23T07:35:54.728Z,65.66
2018-03-23T07:36:54.740Z,66.89
2018-03-23T07:37:54.670Z,66.42
2018-03-23T07:38:54.642Z,66.61
2018-03-23T07:39:54.622Z,68.60
2018-03-23T07:40:54.585Z,69.93
2018-03-23T07:41:54.626Z,70.59
2018-03-23T07:42:54.530Z,68.70
2018-03-23T07:43:54.563Z,68.79
2018-03-23T07:44:54.554Z,69.36
2018-03-23T07:45:54.454Z,68.60
2018-03-23T07:46:54.427Z,68.60
2018-03-23T07:47:54.398Z,68.79
2018-03-23T07:48:54.443Z,69.08
2018-03-23T07:49:54.340Z,68.79
2018-03-23T07:50:54.323Z,68.79
2018-03-23T07:51:54.291Z,66.89
2018-03-23T07:52:54.266Z,67.27
2018-03-23T07:53:54.241Z,66.83
2018-03-23T07:54:54.206Z,66.55
2018-03-23T07:55:54.243Z,67.59
2018-03-23T07:56:54.152Z,69.59
2018-03-23T07:57:54.120Z,69.96
2018-03-23T07:58:54.167Z,69.59
2018-03-23T07:59:54.072Z,72.81
2018-03-23T08:00:54.047Z,73.57
2018-03-23T08:01:54.076Z,71.11
2018-03-23T08:02:53.997Z,71.86
2018-03-23T08:03:53.966Z,71.30
2018-03-23T08:04:53.972Z,72.81
2018-03-23T08:05:53.987Z,73.38
2018-03-23T08:06:53.893Z,73.67
2018-03-23T08:07:53.848Z,74.05
2018-03-23T08:08:53.900Z,76.23
2018-03-23T08:09:53.842Z,75.57
2018-03-23T08:10:53.799Z,75.38
2018-03-23T08:11:53.778Z,73.29
2018-03-23T08:12:53.771Z,73.00
2018-03-23T08:13:53.698Z,74.15
2018-03-23T08:14:53.661Z,72.72
2018-03-23T08:15:53.637Z,72.81
2018-03-23T08:16:53.632Z,73.57
2018-03-23T08:17:53.578Z,74.62
2018-03-23T08:18:53.562Z,74.52
2018-03-23T08:19:53.574Z,74.90
2018-03-23T08:20:53.502Z,74.33
2018-03-23T08:21:53.479Z,75.28
2018-03-23T08:22:53.453Z,73.76
2018-03-23T08:23:53.510Z,75.47
2018-03-23T08:24:53.466Z,76.04
2018-03-23T08:25:53.377Z,73.38
2018-03-23T08:26:53.340Z,71.48
2018-03-23T08:27:53.345Z,74.81
2018-03-23T08:28:53.346Z,74.62
2018-03-23T08:29:53.287Z,74.43
2018-03-23T08:30:53.311Z,72.34
2018-03-23T08:31:53.243Z,72.75
2018-03-23T08:32:53.180Z,72.75
2018-03-23T08:33:53.159Z,71.43
2018-03-23T08:34:53.124Z,73.52
2018-03-23T08:35:53.107Z,76.52
2018-03-23T08:36:53.147Z,77.84
2018-03-23T08:37:53.039Z,77.56
2018-03-23T08:38:53.020Z,78.08
2018-03-23T08:39:52.992Z,76.56
2018-03-23T08:40:52.977Z,78.83
2018-03-23T08:41:52.952Z,79.84
2018-03-23T08:42:52.912Z,78.45
2018-03-23T08:43:52.894Z,77.89
2018-03-23T08:44:52.892Z,79.31
2018-03-23T08:45:52.830Z,81.97
2018-03-23T08:46:52.792Z,80.07
2018-03-23T08:47:52.771Z,81.02
2018-03-23T08:48:52.748Z,78.08
2018-03-23T08:49:52.717Z,79.97
2018-03-23T08:50:52.737Z,81.02
2018-03-23T08:51:52.660Z,80.07
2018-03-23T08:52:52.702Z,79.50
2018-03-23T08:53:52.620Z,78.93
2018-03-23T08:54:53.199Z,79.79
2018-03-23T08:55:52.598Z,79.22
2018-03-23T08:56:52.528Z,80.83
2018-03-23T08:57:52.518Z,86.82
2018-03-23T08:58:52.475Z,85.68
2018-03-23T08:59:52.444Z,85.39
2018-03-23T09:00:52.431Z,85.01
2018-03-23T09:01:52.395Z,87.10
2018-03-23T09:02:52.373Z,84.72
2018-03-23T09:03:52.439Z,84.91
2018-03-23T09:04:52.391Z,84.44
2018-03-23T09:05:52.288Z,85.86
2018-03-23T09:06:52.263Z,87.01
2018-03-23T09:07:52.244Z,86.86
2018-03-23T09:08:52.203Z,86.19
2018-03-23T09:09:52.231Z,84.10
2018-03-23T09:10:52.198Z,87.05
2018-03-23T09:11:52.185Z,87.71
2018-03-23T09:12:52.236Z,87.81
2018-03-23T09:13:52.145Z,86.29
2018-03-23T09:14:52.070Z,85.72
2018-03-23T09:15:52.025Z,86.76
2018-03-23T09:16:52.117Z,89.71
2018-03-23T09:17:51.983Z,90.28
2018-03-23T09:18:51.940Z,88.76
2018-03-23T09:19:51.932Z,88.95
2018-03-23T09:20:51.937Z,89.71
2018-03-23T09:21:51.906Z,88.19
2018-03-23T09:22:51.837Z,86.57
2018-03-23T09:23:51.918Z,86.19
2018-03-23T09:24:51.792Z,88.19
2018-03-23T09:25:51.763Z,89.80
2018-03-23T09:26:51.820Z,88.95
2018-03-23T09:27:51.736Z,88.95
2018-03-23T09:28:51.727Z,90.37
2018-03-23T09:29:51.714Z,92.08
2018-03-23T09:30:51.622Z,94.37
2018-03-23T09:31:51.631Z,94.18
2018-03-23T09:32:51.577Z,89.90
2018-03-23T09:33:51.577Z,92.27
2018-03-23T09:34:51.525Z,91.04
2018-03-23T09:35:51.552Z,91.52
2018-03-23T09:36:51.526Z,91.52
2018-03-23T09:37:51.445Z,94.56
2018-03-23T09:38:51.554Z,93.89
2018-03-23T09:39:51.449Z,91.42
2018-03-23T09:40:51.366Z,93.70
2018-03-23T09:41:51.337Z,91.52
2018-03-23T09:42:51.307Z,93.99
2018-03-23T09:43:51.286Z,93.32
2018-03-23T09:44:51.317Z,89.71
2018-03-23T09:45:51.222Z,91.42
2018-03-23T09:46:51.207Z,94.74
2018-03-23T09:47:51.299Z,91.52
2018-03-23T09:48:51.151Z,94.74
2018-03-23T09:49:51.180Z,93.04
2018-03-23T09:50:51.157Z,92.85
2018-03-23T09:51:51.144Z,93.79
2018-03-23T09:52:51.043Z,93.51
2018-03-23T09:53:51.023Z,92.75
2018-03-23T09:54:50.988Z,93.79
2018-03-23T09:55:51.005Z,91.33
2018-03-23T09:56:50.938Z,94.27
2018-03-23T09:57:50.908Z,91.71
2018-03-23T09:58:50.953Z,94.13
2018-03-23T09:59:50.852Z,93.84
2018-03-23T10:00:50.829Z,91.56
2018-03-23T10:01:50.812Z,92.03
2018-03-23T10:02:50.817Z,91.94
2018-03-23T10:03:50.911Z,94.22
2018-03-23T10:04:50.731Z,95.27
2018-03-23T10:05:50.728Z,96.31
2018-03-23T10:06:50.743Z,93.08
2018-03-23T10:07:50.648Z,93.46
2018-03-23T10:08:50.622Z,95.56
2018-03-23T10:09:50.665Z,94.89
2018-03-23T10:10:50.623Z,94.03
2018-03-23T10:11:50.584Z,96.89
2018-03-23T10:12:50.556Z,95.27
2018-03-23T10:13:50.497Z,94.70
2018-03-23T10:14:50.540Z,95.84
2018-03-23T10:15:50.503Z,94.93
2018-03-23T10:16:50.514Z,95.51
2018-03-23T10:17:50.421Z,95.70
2018-03-23T10:18:50.431Z,94.84
2018-03-23T10:19:50.380Z,95.70
2018-03-23T10:20:50.305Z,97.31
2018-03-23T10:21:50.288Z,96.74
2018-03-23T10:22:50.252Z,97.13
2018-03-23T10:23:50.291Z,95.12
2018-03-23T10:24:50.215Z,96.74
2018-03-23T10:25:50.179Z,97.13
2018-03-23T10:26:50.212Z,98.36
2018-03-23T10:27:50.209Z,96.94
2018-03-23T10:28:50.134Z,96.94
2018-03-23T10:29:50.184Z,95.98
2018-03-23T10:30:50.133Z,95.60
2018-03-23T10:31:50.033Z,95.03
2018-03-23T10:32:49.991Z,95.70
2018-03-23T10:33:50.012Z,97.79
2018-03-23T10:34:49.948Z,96.08
2018-03-23T10:35:49.921Z,96.65
2018-03-23T10:36:49.888Z,95.79
2018-03-23T10:37:49.994Z,98.12
2018-03-23T10:38:49.845Z,95.65
2018-03-23T10:39:49.887Z,95.12
2018-03-23T10:40:49.788Z,97.31
2018-03-23T10:41:49.765Z,95.89
2018-03-23T10:42:49.755Z,96.08
2018-03-23T10:43:49.784Z,97.98
2018-03-23T10:44:49.756Z,95.70
2018-03-23T10:45:49.731Z,97.22
2018-03-23T10:46:49.628Z,95.27
2018-03-23T10:47:49.601Z,97.17
2018-03-23T10:48:49.634Z,96.41
2018-03-23T10:49:49.554Z,97.08
2018-03-23T10:50:49.525Z,96.03
2018-03-23T10:51:49.494Z,96.79
2018-03-23T10:52:49.475Z,97.08
2018-03-23T10:53:49.444Z,96.89
2018-03-23T10:54:49.426Z,96.98
2018-03-23T10:55:49.399Z,98.79
2018-03-23T10:56:49.371Z,98.32
2018-03-23T10:57:49.351Z,96.03
2018-03-23T10:58:49.315Z,96.94
2018-03-23T10:59:49.286Z,97.41
2018-03-23T11:00:49.270Z,97.13
2018-03-23T11:01:49.241Z,97.31
2018-03-23T11:02:49.219Z,97.22
2018-03-23T11:03:49.216Z,98.27
2018-03-23T11:04:49.162Z,96.89
2018-03-23T11:05:49.146Z,95.84
2018-03-23T11:06:49.110Z,97.08
2018-03-23T11:07:49.088Z,96.31
2018-03-23T11:08:49.063Z,96.79
2018-03-23T11:09:49.044Z,98.03
2018-03-23T11:10:49.010Z,97.84
2018-03-23T11:11:48.983Z,97.27
2018-03-23T11:12:48.966Z,96.51
2018-03-23T11:13:48.934Z,96.98
2018-03-23T11:14:48.915Z,97.08
2018-03-23T11:15:48.886Z,96.70
2018-03-23T11:16:48.857Z,96.51
2018-03-23T11:17:48.825Z,96.98
2018-03-23T11:18:48.833Z,97.17
2018-03-23T11:19:48.864Z,96.46
2018-03-23T11:20:48.764Z,96.60
2018-03-23T11:21:48.745Z,97.84
2018-03-23T11:22:48.735Z,96.36
2018-03-23T11:23:48.678Z,97.13
2018-03-23T11:24:48.653Z,96.51
2018-03-23T11:25:48.673Z,97.27
2018-03-23T11:26:48.637Z,98.27
2018-03-23T11:27:48.572Z,98.08
2018-03-23T11:28:48.560Z,97.74
2018-03-23T11:29:48.529Z,96.79
2018-03-23T11:30:48.500Z,97.27
2018-03-23T11:31:48.487Z,96.89
2018-03-23T11:32:48.441Z,96.79
2018-03-23T11:33:48.429Z,98.13
2018-03-23T11:34:48.401Z,98.03
2018-03-23T11:35:48.366Z,97.69
2018-03-23T11:36:48.344Z,96.60
2018-03-23T11:37:48.315Z,97.22
2018-03-23T11:38:48.292Z,97.88
2018-03-23T11:39:48.289Z,97.08
2018-03-23T11:40:48.237Z,97.27
2018-03-23T11:41:48.214Z,98.41
2018-03-23T11:42:48.279Z,96.60
2018-03-23T11:43:48.174Z,97.36
2018-03-23T11:44:48.203Z,96.89
2018-03-23T11:45:48.160Z,97.74
2018-03-23T11:46:48.090Z,97.46
2018-03-23T11:47:48.056Z,98.03
2018-03-23T11:48:48.077Z,96.98
2018-03-23T11:49:48.003Z,96.79
2018-03-23T11:50:48.048Z,97.46
2018-03-23T11:51:47.962Z,98.03
2018-03-23T11:52:47.971Z,96.70
2018-03-23T11:53:47.913Z,97.17
2018-03-23T11:54:47.905Z,97.93
2018-03-23T11:55:47.858Z,96.60
2018-03-23T11:56:47.824Z,97.08
2018-03-23T11:57:47.804Z,98.13
2018-03-23T11:58:47.767Z,97.65
2018-03-23T11:59:47.746Z,97.08
2018-03-23T12:00:47.722Z,97.27
2018-03-23T12:01:47.858Z,96.70
2018-03-23T12:02:47.679Z,96.98
2018-03-23T12:03:47.650Z,96.70
2018-03-23T12:04:47.613Z,97.65
2018-03-23T12:05:47.598Z,97.93
2018-03-23T12:06:47.565Z,96.31
2018-03-23T12:07:47.544Z,98.13
2018-03-23T12:08:47.515Z,97.27
2018-03-23T12:09:47.491Z,96.89
2018-03-23T12:10:47.522Z,98.17
2018-03-23T12:11:47.444Z,96.94
2018-03-23T12:12:47.406Z,96.84
2018-03-23T12:13:47.444Z,96.74
2018-03-23T12:14:47.360Z,97.22
2018-03-23T12:15:47.323Z,96.98
2018-03-23T12:16:47.313Z,96.41
2018-03-23T12:17:47.282Z,96.84
2018-03-23T12:18:47.252Z,96.74
2018-03-23T12:19:47.229Z,96.94
2018-03-23T12:20:47.200Z,96.84
2018-03-23T12:21:47.171Z,97.17
2018-03-23T12:22:47.151Z,97.27
2018-03-23T12:23:47.126Z,96.89
2018-03-23T12:24:47.101Z,97.55
2018-03-23T12:25:47.085Z,97.27
2018-03-23T12:26:47.046Z,96.98
2018-03-23T12:27:47.012Z,97.93
2018-03-23T12:28:47.016Z,96.98
2018-03-23T12:29:46.999Z,96.41
2018-03-23T12:30:46.949Z,96.60
2018-03-23T12:31:46.964Z,97.93
2018-03-23T12:32:46.898Z,96.98
2018-03-23T12:33:46.921Z,97.17
2018-03-23T12:34:46.862Z,97.08
2018-03-23T12:35:46.871Z,96.98
2018-03-23T12:36:46.794Z,97.36
2018-03-23T12:37:46.810Z,96.89
2018-03-23T12:38:46.774Z,97.36
2018-03-23T12:39:46.703Z,96.69
2018-03-23T12:40:46.684Z,96.50
2018-03-23T12:41:46.648Z,97.27
2018-03-23T12:42:46.624Z,96.69
2018-03-23T12:43:46.604Z,96.22
2018-03-23T12:44:46.626Z,96.98
2018-03-23T12:45:46.546Z,97.45
2018-03-23T12:46:46.627Z,96.60
2018-03-23T12:47:46.489Z,96.79
2018-03-23T12:48:46.471Z,97.83
2018-03-23T12:49:46.428Z,97.27
2018-03-23T12:50:46.432Z,97.55
2018-03-23T12:51:46.374Z,98.03